Time;durP1;ratioP1;P1;durP2;ratioP2;P2;SDS_P1;SDS_P2;PMS_P1;PMS_P2;Temp;Humidity;BMP_temperature;BMP_pressure;BME280_temperature;BME280_humidity;BME280_pressure;Samples;Min_cycle;Max_cycle;Signal;HPM_P1;HPM_P2
2023/07/24 00:01:48;;;;;;;19.00;12.07;;;;;;;;;;4430638;32;20704;-80
2023/07/24 00:04:15;;;;;;;16.90;12.23;;;;;;;;;;4430115;32;20233;-82
2023/07/24 00:06:42;;;;;;;21.02;12.82;;;;;;;;;;4417501;32;20241;-80
2023/07/24 00:09:10;;;;;;;17.55;12.98;;;;;;;;;;4414914;32;20212;-82
2023/07/24 00:11:37;;;;;;;22.75;13.00;;;;;;;;;;4414781;32;20233;-80
2023/07/24 00:14:03;;;;;;;17.62;13.82;;;;;;;;;;4414737;32;20218;-80
2023/07/24 00:16:30;;;;;;;20.12;13.62;;;;;;;;;;4413411;32;20346;-81
2023/07/24 00:18:57;;;;;;;23.55;15.02;;;;;;;;;;4404685;32;20243;-80
2023/07/24 00:21:24;;;;;;;20.50;13.62;;;;;;;;;;4404694;32;20351;-82
2023/07/24 00:23:51;;;;;;;16.87;12.85;;;;;;;;;;4404650;32;20296;-79
2023/07/24 00:26:19;;;;;;;18.77;13.50;;;;;;;;;;4404996;32;20294;-80
2023/07/24 00:28:45;;;;;;;20.55;14.02;;;;;;;;;;4404415;32;20216;-79
2023/07/24 00:31:12;;;;;;;19.25;13.70;;;;;;;;;;4404492;32;20636;-79
2023/07/24 00:33:39;;;;;;;18.95;12.37;;;;;;;;;;4404888;32;20278;-79
2023/07/24 00:36:06;;;;;;;17.00;12.90;;;;;;;;;;4404135;32;20241;-80
2023/07/24 00:38:32;;;;;;;24.33;13.75;;;;;;;;;;4404786;32;20233;-80
2023/07/24 00:40:59;;;;;;;21.58;13.55;;;;;;;;;;4404723;32;20237;-80
2023/07/24 00:43:27;;;;;;;22.23;13.85;;;;;;;;;;4405032;32;20268;-80
2023/07/24 00:45:56;;;;;;;21.12;13.15;;;;;;;;;;4404027;32;20241;-81
2023/07/24 00:48:23;;;;;;;25.02;14.48;;;;;;;;;;4404933;32;20745;-80
2023/07/24 00:50:51;;;;;;;24.98;14.43;;;;;;;;;;4404121;32;20339;-80
2023/07/24 00:53:19;;;;;;;19.27;14.10;;;;;;;;;;4404651;32;20206;-81
2023/07/24 00:55:46;;;;;;;23.15;17.10;;;;;;;;;;4404296;32;20237;-81
2023/07/24 00:58:13;;;;;;;22.95;15.52;;;;;;;;;;4404428;32;20240;-80
2023/07/24 01:00:42;;;;;;;23.50;15.68;;;;;;;;;;4404241;32;20233;-80
2023/07/24 01:03:09;;;;;;;23.92;16.27;;;;;;;;;;4404144;32;20294;-80
2023/07/24 01:05:36;;;;;;;22.85;15.90;;;;;;;;;;4403990;32;20782;-81
2023/07/24 01:08:03;;;;;;;28.70;17.77;;;;;;;;;;4404531;32;20238;-80
2023/07/24 01:10:29;;;;;;;28.38;16.75;;;;;;;;;;4404168;32;20226;-81
2023/07/24 01:13:06;;;;;;;27.20;17.30;;;;;;;;;;4403592;32;20620;-80
2023/07/24 01:15:35;;;;;;;21.12;14.05;;;;;;;;;;4403936;32;20310;-80
2023/07/24 01:18:08;;;;;;;17.23;12.30;;;;;;;;;;4403972;32;20728;-80
2023/07/24 01:20:40;;;;;;;19.85;13.35;;;;;;;;;;4404020;32;20330;-81
2023/07/24 01:23:28;;;;;;;21.58;14.30;;;;;;;;;;4403967;32;20237;-80
2023/07/24 01:25:58;;;;;;;16.77;12.32;;;;;;;;;;4403798;32;20307;-80
2023/07/24 01:28:24;;;;;;;18.42;12.85;;;;;;;;;;4403701;32;20255;-81
2023/07/24 01:30:51;;;;;;;21.42;13.55;;;;;;;;;;4403010;32;20316;-81
2023/07/24 01:33:18;;;;;;;22.92;14.32;;;;;;;;;;4404166;32;20245;-80
2023/07/24 01:35:45;;;;;;;18.58;13.52;;;;;;;;;;4403913;32;20555;-80
2023/07/24 01:38:13;;;;;;;18.12;12.73;;;;;;;;;;4404294;32;20221;-81
2023/07/24 01:40:41;;;;;;;18.55;12.60;;;;;;;;;;4403543;32;20229;-80
2023/07/24 01:43:09;;;;;;;20.73;13.32;;;;;;;;;;4404061;32;20241;-80
2023/07/24 01:45:36;;;;;;;21.20;13.40;;;;;;;;;;4403706;32;20237;-80
2023/07/24 01:48:05;;;;;;;21.60;12.60;;;;;;;;;;4403697;32;20981;-80
2023/07/24 01:50:31;;;;;;;17.67;12.93;;;;;;;;;;4403193;32;20316;-80
2023/07/24 01:52:58;;;;;;;21.45;12.30;;;;;;;;;;4403546;32;20253;-81
2023/07/24 01:55:25;;;;;;;17.45;13.73;;;;;;;;;;4403466;32;20639;-80
2023/07/24 01:57:52;;;;;;;16.70;12.23;;;;;;;;;;4403625;32;20263;-80
2023/07/24 02:00:20;;;;;;;22.85;13.85;;;;;;;;;;4402793;32;20315;-80
2023/07/24 02:02:47;;;;;;;18.80;13.90;;;;;;;;;;4403276;32;20625;-81
2023/07/24 02:05:14;;;;;;;18.67;13.02;;;;;;;;;;4403377;32;20827;-80
2023/07/24 02:07:41;;;;;;;20.33;13.07;;;;;;;;;;4403228;32;20317;-80
2023/07/24 02:10:09;;;;;;;23.48;13.90;;;;;;;;;;4402999;32;20639;-80
2023/07/24 02:12:35;;;;;;;18.23;13.13;;;;;;;;;;4403463;32;20217;-83
2023/07/24 02:15:02;;;;;;;17.60;12.77;;;;;;;;;;4403084;32;20670;-80
2023/07/24 02:17:30;;;;;;;19.00;13.95;;;;;;;;;;4403193;32;20663;-84
2023/07/24 02:19:57;;;;;;;17.92;13.05;;;;;;;;;;4402826;32;20243;-80
2023/07/24 02:22:25;;;;;;;22.45;14.48;;;;;;;;;;4403245;32;20246;-81
2023/07/24 02:24:51;;;;;;;22.45;14.68;;;;;;;;;;4403136;32;20752;-80
2023/07/24 02:27:27;;;;;;;22.23;15.40;;;;;;;;;;4403123;32;21351;-80
2023/07/24 02:29:54;;;;;;;20.35;13.75;;;;;;;;;;4403470;32;20221;-80
2023/07/24 02:32:22;;;;;;;26.48;14.40;;;;;;;;;;4403461;32;20680;-80
2023/07/24 02:34:50;;;;;;;21.37;14.23;;;;;;;;;;4403804;32;20244;-86
2023/07/24 02:37:17;;;;;;;22.35;14.30;;;;;;;;;;4406497;32;20231;-80
2023/07/24 02:39:43;;;;;;;22.67;13.82;;;;;;;;;;4413486;32;20221;-80
2023/07/24 02:42:10;;;;;;;19.80;14.27;;;;;;;;;;4414184;32;20251;-82
2023/07/24 02:44:37;;;;;;;21.85;14.70;;;;;;;;;;4417176;32;20174;-87
2023/07/24 02:47:04;;;;;;;20.33;15.25;;;;;;;;;;4419757;32;20307;-81
2023/07/24 02:49:31;;;;;;;23.08;15.55;;;;;;;;;;4415936;32;20222;-84
2023/07/24 02:51:59;;;;;;;26.50;15.88;;;;;;;;;;4403171;32;20778;-81
2023/07/24 02:54:26;;;;;;;23.85;15.73;;;;;;;;;;4402617;32;20225;-80
2023/07/24 02:56:53;;;;;;;25.40;17.75;;;;;;;;;;4402988;32;20277;-81
2023/07/24 02:59:20;;;;;;;21.60;15.40;;;;;;;;;;4403056;32;20314;-81
2023/07/24 03:01:46;;;;;;;25.67;15.88;;;;;;;;;;4402873;32;20229;-80
2023/07/24 03:04:13;;;;;;;22.15;16.10;;;;;;;;;;4403062;32;20263;-81
2023/07/24 03:06:40;;;;;;;25.85;16.60;;;;;;;;;;4402719;32;20322;-83
2023/07/24 03:09:08;;;;;;;21.45;15.85;;;;;;;;;;4403135;32;20232;-84
2023/07/24 03:11:35;;;;;;;22.52;15.38;;;;;;;;;;4403115;32;20319;-81
2023/07/24 03:14:02;;;;;;;23.87;14.18;;;;;;;;;;4402808;32;20394;-81
2023/07/24 03:16:28;;;;;;;20.37;14.77;;;;;;;;;;4402542;32;20241;-80
2023/07/24 03:18:55;;;;;;;24.83;15.73;;;;;;;;;;4402733;32;20804;-79
2023/07/24 03:21:22;;;;;;;25.00;15.18;;;;;;;;;;4402505;32;20338;-80
2023/07/24 03:23:49;;;;;;;24.98;15.15;;;;;;;;;;4402965;32;20222;-80
2023/07/24 03:26:17;;;;;;;26.35;16.00;;;;;;;;;;4402662;32;20278;-80
2023/07/24 03:28:43;;;;;;;29.00;15.35;;;;;;;;;;4402851;32;20222;-80
2023/07/24 03:31:10;;;;;;;27.67;15.30;;;;;;;;;;4402395;32;20712;-80
2023/07/24 03:33:37;;;;;;;21.12;14.45;;;;;;;;;;4402395;32;20275;-81
2023/07/24 03:36:04;;;;;;;21.33;14.98;;;;;;;;;;4402048;32;20562;-80
2023/07/24 03:38:31;;;;;;;28.92;16.98;;;;;;;;;;4402080;32;20651;-80
2023/07/24 03:40:58;;;;;;;30.83;16.00;;;;;;;;;;4402778;32;20261;-80
2023/07/24 03:43:26;;;;;;;19.87;13.98;;;;;;;;;;4402405;32;20229;-80
2023/07/24 03:45:52;;;;;;;27.15;15.60;;;;;;;;;;4402240;32;20311;-80
2023/07/24 03:48:19;;;;;;;25.95;15.23;;;;;;;;;;4401945;32;20302;-80
2023/07/24 03:50:46;;;;;;;23.98;15.80;;;;;;;;;;4402347;32;20241;-80
2023/07/24 03:53:12;;;;;;;27.42;15.73;;;;;;;;;;4404157;32;20299;-80
2023/07/24 03:55:39;;;;;;;23.52;15.82;;;;;;;;;;4405104;32;20260;-83
2023/07/24 03:58:06;;;;;;;20.88;15.32;;;;;;;;;;4405339;32;20793;-86
2023/07/24 04:00:34;;;;;;;23.33;14.77;;;;;;;;;;4404917;32;20261;-83
2023/07/24 04:03:01;;;;;;;33.03;15.52;;;;;;;;;;4405399;32;20262;-83
2023/07/24 04:05:27;;;;;;;25.75;15.55;;;;;;;;;;4404813;32;20234;-82
2023/07/24 04:07:55;;;;;;;24.95;16.30;;;;;;;;;;4404868;32;20742;-83
2023/07/24 04:10:22;;;;;;;27.15;15.98;;;;;;;;;;4404737;32;20257;-83
2023/07/24 04:12:48;;;;;;;23.25;15.52;;;;;;;;;;4405633;32;20679;-83
2023/07/24 04:15:15;;;;;;;25.23;16.33;;;;;;;;;;4405145;32;20245;-82
2023/07/24 04:17:43;;;;;;;27.67;16.25;;;;;;;;;;4404652;32;20378;-82
2023/07/24 04:20:11;;;;;;;33.03;15.90;;;;;;;;;;4404992;32;20237;-80
2023/07/24 04:22:37;;;;;;;31.12;16.10;;;;;;;;;;4405121;32;20282;-80
2023/07/24 04:25:05;;;;;;;21.37;15.38;;;;;;;;;;4404426;32;20298;-80
2023/07/24 04:27:32;;;;;;;29.37;16.48;;;;;;;;;;4405358;32;20263;-81
2023/07/24 04:29:59;;;;;;;28.23;16.45;;;;;;;;;;4404855;32;20279;-80
2023/07/24 04:32:27;;;;;;;25.98;15.60;;;;;;;;;;4404557;32;20225;-81
2023/07/24 04:34:55;;;;;;;22.40;16.02;;;;;;;;;;4404695;32;20225;-80
2023/07/24 04:37:22;;;;;;;27.40;16.20;;;;;;;;;;4404382;32;20767;-81
2023/07/24 04:39:48;;;;;;;40.10;17.02;;;;;;;;;;4404920;32;20283;-80
2023/07/24 04:42:15;;;;;;;26.15;16.33;;;;;;;;;;4405274;32;20222;-80
2023/07/24 04:44:42;;;;;;;29.40;15.85;;;;;;;;;;4404434;32;20217;-80
2023/07/24 04:47:08;;;;;;;28.77;15.18;;;;;;;;;;4404635;32;20279;-80
2023/07/24 04:49:35;;;;;;;38.50;15.82;;;;;;;;;;4404529;32;20222;-80
2023/07/24 04:52:04;;;;;;;30.52;16.40;;;;;;;;;;4404513;32;20241;-80
2023/07/24 04:54:31;;;;;;;27.75;16.00;;;;;;;;;;4404482;32;20731;-80
2023/07/24 04:56:57;;;;;;;26.12;15.68;;;;;;;;;;4404474;32;20233;-80
2023/07/24 04:59:24;;;;;;;26.35;14.95;;;;;;;;;;4404362;32;20625;-80
2023/07/24 05:01:51;;;;;;;23.38;15.98;;;;;;;;;;4404450;32;20598;-80
2023/07/24 05:04:18;;;;;;;25.25;15.60;;;;;;;;;;4404393;32;20261;-80
2023/07/24 05:06:45;;;;;;;35.20;16.02;;;;;;;;;;4404298;32;20704;-80
2023/07/24 05:09:14;;;;;;;28.65;16.30;;;;;;;;;;4404102;32;20218;-80
2023/07/24 05:11:41;;;;;;;29.83;16.52;;;;;;;;;;4404551;32;20288;-80
2023/07/24 05:14:08;;;;;;;27.20;16.35;;;;;;;;;;4404265;32;20708;-83
2023/07/24 05:16:35;;;;;;;26.67;16.37;;;;;;;;;;4403687;32;20245;-80
2023/07/24 05:19:01;;;;;;;27.27;15.75;;;;;;;;;;4403865;32;20838;-79
2023/07/24 05:21:28;;;;;;;28.60;15.75;;;;;;;;;;4404165;32;20563;-80
2023/07/24 05:23:55;;;;;;;23.98;14.07;;;;;;;;;;4403968;32;20271;-80
2023/07/24 05:26:23;;;;;;;25.98;16.00;;;;;;;;;;4404076;32;20233;-78
2023/07/24 05:28:50;;;;;;;26.60;16.95;;;;;;;;;;4404077;32;20640;-79
2023/07/24 05:31:16;;;;;;;28.62;17.20;;;;;;;;;;4404048;32;20242;-79
2023/07/24 05:33:43;;;;;;;25.23;15.45;;;;;;;;;;4404310;32;20368;-78
2023/07/24 05:36:10;;;;;;;31.62;16.77;;;;;;;;;;4403542;32;20310;-79
2023/07/24 05:38:36;;;;;;;40.58;20.27;;;;;;;;;;4402989;32;20225;-80
2023/07/24 05:41:05;;;;;;;29.23;17.02;;;;;;;;;;4403212;32;20711;-79
2023/07/24 05:43:33;;;;;;;24.87;15.82;;;;;;;;;;4403511;32;20213;-79
2023/07/24 05:46:00;;;;;;;27.98;16.37;;;;;;;;;;4403053;32;20284;-79
2023/07/24 05:48:27;;;;;;;25.45;15.13;;;;;;;;;;4402922;32;20226;-79
2023/07/24 05:50:53;;;;;;;29.35;16.90;;;;;;;;;;4403414;32;20332;-80
2023/07/24 05:53:20;;;;;;;28.60;15.75;;;;;;;;;;4403360;32;20318;-79
2023/07/24 05:55:47;;;;;;;28.05;15.68;;;;;;;;;;4403518;32;20276;-79
2023/07/24 05:58:14;;;;;;;22.37;15.63;;;;;;;;;;4403087;32;20323;-78
2023/07/24 06:00:42;;;;;;;30.35;14.35;;;;;;;;;;4403367;32;20261;-81
2023/07/24 06:03:08;;;;;;;27.52;15.73;;;;;;;;;;4403270;32;20661;-81
2023/07/24 06:05:35;;;;;;;24.08;15.18;;;;;;;;;;4403011;32;20616;-81
2023/07/24 06:08:02;;;;;;;26.45;15.52;;;;;;;;;;4402567;32;20705;-81
2023/07/24 06:10:28;;;;;;;23.67;15.30;;;;;;;;;;4403429;32;20233;-81
2023/07/24 06:12:55;;;;;;;25.92;15.85;;;;;;;;;;4403140;32;20252;-82
2023/07/24 06:15:22;;;;;;;21.90;15.13;;;;;;;;;;4402503;32;20237;-80
2023/07/24 06:17:50;;;;;;;24.70;15.90;;;;;;;;;;4403300;32;20261;-82
2023/07/24 06:20:17;;;;;;;24.30;15.70;;;;;;;;;;4403089;32;20241;-81
2023/07/24 06:22:43;;;;;;;24.02;16.58;;;;;;;;;;4403235;32;20813;-85
2023/07/24 06:25:10;;;;;;;26.95;15.95;;;;;;;;;;4402672;32;20256;-80
2023/07/24 06:27:37;;;;;;;21.42;15.32;;;;;;;;;;4403246;32;20236;-81
2023/07/24 06:30:04;;;;;;;25.40;15.95;;;;;;;;;;4403318;32;20689;-80
2023/07/24 06:32:31;;;;;;;29.02;16.52;;;;;;;;;;4402572;32;20225;-83
2023/07/24 06:34:59;;;;;;;27.95;15.93;;;;;;;;;;4402780;32;20306;-80
2023/07/24 06:37:26;;;;;;;25.35;16.73;;;;;;;;;;4402625;32;20902;-81
2023/07/24 06:39:53;;;;;;;33.75;15.80;;;;;;;;;;4402831;32;20282;-78
2023/07/24 06:42:19;;;;;;;22.50;15.80;;;;;;;;;;4402852;32;20229;-80
2023/07/24 06:44:46;;;;;;;21.62;16.70;;;;;;;;;;4403134;32;20281;-79
2023/07/24 06:47:13;;;;;;;29.17;15.32;;;;;;;;;;4402662;32;20233;-81
2023/07/24 06:49:39;;;;;;;27.70;16.25;;;;;;;;;;4401531;32;20222;-80
2023/07/24 06:52:08;;;;;;;21.95;17.00;;;;;;;;;;4400635;32;20338;-80
2023/07/24 06:54:35;;;;;;;23.58;15.13;;;;;;;;;;4402214;32;20221;-80
2023/07/24 06:57:01;;;;;;;24.52;15.05;;;;;;;;;;4398096;32;20290;-79
2023/07/24 06:59:28;;;;;;;30.67;17.85;;;;;;;;;;4393024;32;20292;-78
2023/07/24 07:01:55;;;;;;;25.52;16.62;;;;;;;;;;4398126;32;20623;-78
2023/07/24 07:04:21;;;;;;;24.42;17.27;;;;;;;;;;4402661;32;20261;-78
2023/07/24 07:06:48;;;;;;;27.80;16.80;;;;;;;;;;4394603;32;20245;-79
2023/07/24 07:09:16;;;;;;;27.13;16.83;;;;;;;;;;4417427;32;20224;-79
2023/07/24 07:11:44;;;;;;;31.25;16.95;;;;;;;;;;4416770;32;20252;-81
2023/07/24 07:14:12;;;;;;;26.20;15.98;;;;;;;;;;4409503;32;20221;-82
2023/07/24 07:16:40;;;;;;;24.20;15.77;;;;;;;;;;4401985;32;20264;-81
2023/07/24 07:19:09;;;;;;;26.75;16.52;;;;;;;;;;4402626;32;20310;-81
2023/07/24 07:21:36;;;;;;;24.52;16.50;;;;;;;;;;4402803;32;20305;-82
2023/07/24 07:24:02;;;;;;;22.42;16.35;;;;;;;;;;4402462;32;20241;-81
2023/07/24 07:26:31;;;;;;;25.83;16.87;;;;;;;;;;4402129;32;20265;-81
2023/07/24 07:28:57;;;;;;;25.70;16.33;;;;;;;;;;4405498;32;20249;-82
2023/07/24 07:31:24;;;;;;;22.27;15.98;;;;;;;;;;4396571;32;20304;-81
2023/07/24 07:33:51;;;;;;;27.23;17.20;;;;;;;;;;4390120;32;20218;-81
2023/07/24 07:36:18;;;;;;;22.83;16.70;;;;;;;;;;4390279;32;20258;-80
2023/07/24 07:38:45;;;;;;;24.52;16.25;;;;;;;;;;4390586;32;20221;-81
2023/07/24 07:41:12;;;;;;;28.52;16.35;;;;;;;;;;4393113;32;20776;-79
2023/07/24 07:43:40;;;;;;;24.40;17.20;;;;;;;;;;4393219;32;20213;-79
2023/07/24 07:46:07;;;;;;;27.52;17.17;;;;;;;;;;4395427;32;20245;-79
2023/07/24 07:48:33;;;;;;;23.80;15.77;;;;;;;;;;4411420;32;20253;-79
2023/07/24 07:51:00;;;;;;;25.17;16.00;;;;;;;;;;4408742;32;20253;-79
2023/07/24 07:53:27;;;;;;;21.62;15.73;;;;;;;;;;4407375;32;20266;-81
2023/07/24 07:55:58;;;;;;;24.48;16.58;;;;;;;;;;4405323;32;20250;-81
2023/07/24 07:58:25;;;;;;;21.62;16.67;;;;;;;;;;4405726;32;20311;-81
2023/07/24 08:00:53;;;;;;;26.67;16.33;;;;;;;;;;4405370;32;20256;-81
2023/07/24 08:03:19;;;;;;;27.40;16.83;;;;;;;;;;4405190;32;20290;-81
2023/07/24 08:05:46;;;;;;;24.90;17.27;;;;;;;;;;4404964;32;20245;-81
2023/07/24 08:08:13;;;;;;;25.48;15.38;;;;;;;;;;4404901;32;20738;-81
2023/07/24 08:10:40;;;;;;;21.02;16.77;;;;;;;;;;4404763;32;20577;-81
2023/07/24 08:13:07;;;;;;;25.00;15.82;;;;;;;;;;4404601;32;20213;-81
2023/07/24 08:15:36;;;;;;;29.52;17.42;;;;;;;;;;4404712;32;20269;-81
2023/07/24 08:18:05;;;;;;;22.70;15.65;;;;;;;;;;4403011;32;20935;-81
2023/07/24 08:20:32;;;;;;;25.00;16.52;;;;;;;;;;4403370;32;20248;-83
2023/07/24 08:22:58;;;;;;;21.10;14.07;;;;;;;;;;4404220;32;20252;-81
2023/07/24 08:25:25;;;;;;;20.75;14.70;;;;;;;;;;4403679;32;20241;-82
2023/07/24 08:27:52;;;;;;;24.63;16.35;;;;;;;;;;4403740;32;20233;-82
2023/07/24 08:30:19;;;;;;;24.55;15.57;;;;;;;;;;4403937;32;20767;-81
2023/07/24 08:32:46;;;;;;;22.08;14.80;;;;;;;;;;4404754;32;20259;-82
2023/07/24 08:35:14;;;;;;;22.20;14.77;;;;;;;;;;4404329;32;20295;-81
2023/07/24 08:37:43;;;;;;;24.23;16.45;;;;;;;;;;4403467;32;20742;-80
2023/07/24 08:40:12;;;;;;;25.27;14.77;;;;;;;;;;4404895;32;20237;-81
2023/07/24 08:42:40;;;;;;;26.73;16.37;;;;;;;;;;4403572;32;20240;-81
2023/07/24 08:45:12;;;;;;;29.55;16.27;;;;;;;;;;4404628;32;20280;-80
2023/07/24 08:47:40;;;;;;;22.48;16.45;;;;;;;;;;4352453;32;318121;-82
2023/07/24 08:50:11;;;;;;;22.27;15.93;;;;;;;;;;4344061;32;319312;-80
2023/07/24 08:52:39;;;;;;;23.52;15.80;;;;;;;;;;4353430;32;319364;-82
2023/07/24 08:55:06;;;;;;;23.00;15.43;;;;;;;;;;4336765;32;319838;-82
2023/07/24 08:57:33;;;;;;;21.87;14.77;;;;;;;;;;4354823;32;319226;-85
2023/07/24 09:00:04;;;;;;;22.33;15.60;;;;;;;;;;4344782;32;319402;-86
2023/07/24 09:02:31;;;;;;;21.50;15.25;;;;;;;;;;4353795;32;319051;-86
2023/07/24 09:04:58;;;;;;;23.30;14.95;;;;;;;;;;4344118;32;319219;-87
2023/07/24 09:07:25;;;;;;;20.40;14.90;;;;;;;;;;4353345;32;319501;-84
2023/07/24 09:09:53;;;;;;;22.87;15.43;;;;;;;;;;4351871;32;347622;-86
2023/07/24 09:12:19;;;;;;;25.15;13.95;;;;;;;;;;4340397;32;418895;-88
2023/07/24 09:14:46;;;;;;;21.27;14.35;;;;;;;;;;4354326;32;318610;-84
2023/07/24 09:17:13;;;;;;;22.37;14.27;;;;;;;;;;4343574;32;318985;-83
2023/07/24 09:19:40;;;;;;;22.70;15.32;;;;;;;;;;4353969;32;319582;-85
2023/07/24 09:22:14;;;;;;;18.77;14.32;;;;;;;;;;4342950;32;319303;-84
2023/07/24 09:24:51;;;;;;;25.05;14.00;;;;;;;;;;4354149;32;319270;-84
2023/07/24 09:27:20;;;;;;;21.92;14.40;;;;;;;;;;4344245;32;319157;-79
2023/07/24 09:29:47;;;;;;;28.73;14.18;;;;;;;;;;4352872;32;319586;-81
2023/07/24 09:32:21;;;;;;;18.73;14.13;;;;;;;;;;4343621;32;319818;-81
2023/07/24 09:34:48;;;;;;;23.10;12.98;;;;;;;;;;4352288;32;318762;-80
2023/07/24 09:37:25;;;;;;;17.80;13.52;;;;;;;;;;4342196;32;319372;-79
2023/07/24 09:39:52;;;;;;;22.65;14.40;;;;;;;;;;4352685;32;344054;-79
2023/07/24 09:42:28;;;;;;;19.20;13.77;;;;;;;;;;4343323;32;334486;-79
2023/07/24 09:44:55;;;;;;;36.30;14.10;;;;;;;;;;4343945;32;319148;-79
2023/07/24 09:47:22;;;;;;;20.80;13.13;;;;;;;;;;4352690;32;319712;-80
2023/07/24 09:49:49;;;;;;;23.60;14.23;;;;;;;;;;4352800;32;319579;-79
2023/07/24 09:52:19;;;;;;;25.15;14.57;;;;;;;;;;4342385;32;319301;-78
2023/07/24 09:54:55;;;;;;;18.60;13.65;;;;;;;;;;4343357;32;319338;-79
2023/07/24 09:57:25;;;;;;;19.77;13.80;;;;;;;;;;4340432;32;420253;-79
2023/07/24 09:59:53;;;;;;;20.30;12.65;;;;;;;;;;4352362;32;319277;-82
2023/07/24 10:02:20;;;;;;;16.30;12.57;;;;;;;;;;4339366;32;418396;-80
2023/07/24 10:04:47;;;;;;;18.65;12.60;;;;;;;;;;4351250;32;335503;-79
2023/07/24 10:07:14;;;;;;;24.40;14.32;;;;;;;;;;4329310;32;319841;-80
2023/07/24 10:09:43;;;;;;;18.80;12.30;;;;;;;;;;4337998;32;319186;-80
2023/07/24 10:12:10;;;;;;;18.50;13.13;;;;;;;;;;4328322;32;319590;-79
2023/07/24 10:14:39;;;;;;;16.95;12.40;;;;;;;;;;4337245;32;319644;-80
2023/07/24 10:17:06;;;;;;;21.77;12.47;;;;;;;;;;4326076;32;349415;-80
2023/07/24 10:19:42;;;;;;;19.35;12.95;;;;;;;;;;4337688;32;340050;-80
2023/07/24 10:22:10;;;;;;;16.37;12.00;;;;;;;;;;4328408;32;319112;-79
2023/07/24 10:24:37;;;;;;;15.98;11.55;;;;;;;;;;4336295;32;345984;-80
2023/07/24 10:27:04;;;;;;;19.45;12.77;;;;;;;;;;4326206;32;319149;-81
2023/07/24 10:29:35;;;;;;;26.73;12.98;;;;;;;;;;4335152;32;317985;-81
2023/07/24 10:32:04;;;;;;;19.33;11.95;;;;;;;;;;4332655;32;319252;-80
2023/07/24 10:34:38;;;;;;;18.23;12.37;;;;;;;;;;4351819;32;319219;-80
2023/07/24 10:37:08;;;;;;;17.62;11.07;;;;;;;;;;4325222;32;319141;-81
2023/07/24 10:39:39;;;;;;;16.70;10.88;;;;;;;;;;4344936;32;319842;-81
2023/07/24 10:42:08;;;;;;;16.40;11.12;;;;;;;;;;4356650;32;319085;-79
2023/07/24 10:44:35;;;;;;;16.77;11.73;;;;;;;;;;4366443;32;344076;-80
2023/07/24 10:47:03;;;;;;;19.87;10.75;;;;;;;;;;4358169;32;319260;-80
2023/07/24 10:49:30;;;;;;;16.70;11.25;;;;;;;;;;4354425;32;319611;-80
2023/07/24 10:51:57;;;;;;;20.45;10.85;;;;;;;;;;4341440;32;319570;-81
2023/07/24 10:54:24;;;;;;;15.18;10.23;;;;;;;;;;4345736;32;338497;-80
2023/07/24 10:56:51;;;;;;;15.52;10.10;;;;;;;;;;4337779;32;319289;-81
2023/07/24 10:59:17;;;;;;;16.33;10.65;;;;;;;;;;4328246;32;319066;-81
2023/07/24 11:01:44;;;;;;;16.12;8.55;;;;;;;;;;4336159;32;319013;-80
2023/07/24 11:04:12;;;;;;;16.87;8.55;;;;;;;;;;4326765;32;318349;-80
2023/07/24 11:06:39;;;;;;;15.45;8.15;;;;;;;;;;4336251;32;318022;-83
2023/07/24 11:09:06;;;;;;;18.42;8.35;;;;;;;;;;4326650;32;317595;-81
2023/07/24 11:11:33;;;;;;;17.02;9.45;;;;;;;;;;4346814;32;317641;-84
2023/07/24 11:14:02;;;;;;;11.80;8.25;;;;;;;;;;4341006;32;318176;-82
2023/07/24 11:16:30;;;;;;;13.57;8.90;;;;;;;;;;4352282;32;317546;-83
2023/07/24 11:18:56;;;;;;;14.65;8.63;;;;;;;;;;4343211;32;318009;-82
2023/07/24 11:21:25;;;;;;;19.05;8.25;;;;;;;;;;4351856;32;318232;-80
2023/07/24 11:23:52;;;;;;;17.35;8.98;;;;;;;;;;4352757;32;318194;-80
2023/07/24 11:26:21;;;;;;;13.80;8.55;;;;;;;;;;4342608;32;317553;-81
2023/07/24 11:28:48;;;;;;;18.25;8.68;;;;;;;;;;4352658;32;318096;-81
2023/07/24 11:31:15;;;;;;;26.52;8.25;;;;;;;;;;4342140;32;340637;-83
2023/07/24 11:33:44;;;;;;;15.95;7.97;;;;;;;;;;4352870;32;318513;-84
2023/07/24 11:36:12;;;;;;;16.80;8.80;;;;;;;;;;4342271;32;317850;-83
2023/07/24 11:38:40;;;;;;;19.95;9.48;;;;;;;;;;4351499;32;318721;-83
2023/07/24 11:41:09;;;;;;;14.93;8.57;;;;;;;;;;4356537;32;318698;-84
2023/07/24 11:43:36;;;;;;;23.08;9.93;;;;;;;;;;4365967;32;318490;-86
2023/07/24 11:46:03;;;;;;;17.27;9.18;;;;;;;;;;4343015;32;318212;-88
2023/07/24 11:48:30;;;;;;;16.98;10.20;;;;;;;;;;4352389;32;319916;-85
2023/07/24 11:50:58;;;;;;;19.40;9.80;;;;;;;;;;4341641;32;319211;-84
2023/07/24 11:53:25;;;;;;;13.93;9.02;;;;;;;;;;4352465;32;318214;-85
2023/07/24 11:55:55;;;;;;;17.77;9.00;;;;;;;;;;4351309;32;317535;-85
2023/07/24 11:58:22;;;;;;;19.20;9.45;;;;;;;;;;4339711;32;417862;-83
2023/07/24 12:00:51;;;;;;;16.45;9.63;;;;;;;;;;4351115;32;318195;-77
2023/07/24 12:03:20;;;;;;;18.92;10.30;;;;;;;;;;4341628;32;318288;-78
2023/07/24 12:05:47;;;;;;;15.75;9.60;;;;;;;;;;4350987;32;319287;-78
2023/07/24 12:08:15;;;;;;;15.07;9.48;;;;;;;;;;4342541;32;318130;-77
2023/07/24 12:10:42;;;;;;;16.80;8.15;;;;;;;;;;4352054;32;318127;-79
2023/07/24 12:13:10;;;;;;;14.98;9.35;;;;;;;;;;4342965;32;318383;-77
2023/07/24 12:15:37;;;;;;;18.27;10.38;;;;;;;;;;4353607;32;318720;-77
2023/07/24 12:18:05;;;;;;;17.65;10.48;;;;;;;;;;4343579;32;319445;-77
2023/07/24 12:20:32;;;;;;;17.33;9.25;;;;;;;;;;4353506;32;326012;-77
2023/07/24 12:22:59;;;;;;;18.37;8.68;;;;;;;;;;4345232;32;318433;-77
2023/07/24 12:25:26;;;;;;;14.87;8.75;;;;;;;;;;4354903;32;318214;-78
2023/07/24 12:27:52;;;;;;;18.17;9.32;;;;;;;;;;4354552;32;317922;-78
2023/07/24 12:30:20;;;;;;;15.30;8.55;;;;;;;;;;4340392;32;419408;-78
2023/07/24 12:32:47;;;;;;;24.10;9.32;;;;;;;;;;4353884;32;318154;-78
2023/07/24 12:35:14;;;;;;;17.87;9.43;;;;;;;;;;4343929;32;318156;-79
2023/07/24 12:37:41;;;;;;;15.38;9.00;;;;;;;;;;4353712;32;318335;-79
2023/07/24 12:40:09;;;;;;;14.95;8.73;;;;;;;;;;4352979;32;318067;-78
2023/07/24 12:42:36;;;;;;;20.85;8.85;;;;;;;;;;4366504;32;318302;-79
2023/07/24 12:45:03;;;;;;;12.77;7.87;;;;;;;;;;4341369;32;353348;-83
2023/07/24 12:47:32;;;;;;;15.38;8.27;;;;;;;;;;4353027;32;317643;-80
2023/07/24 12:49:59;;;;;;;16.70;8.70;;;;;;;;;;4343284;32;318247;-80
2023/07/24 12:52:26;;;;;;;12.00;9.05;;;;;;;;;;4351967;32;343668;-80
2023/07/24 12:54:53;;;;;;;11.52;7.78;;;;;;;;;;4353263;32;318561;-79
2023/07/24 12:57:20;;;;;;;19.80;9.55;;;;;;;;;;4341765;32;318126;-84
2023/07/24 12:59:46;;;;;;;13.07;7.87;;;;;;;;;;4345468;32;318121;-84
2023/07/24 13:02:13;;;;;;;12.05;8.15;;;;;;;;;;4330840;32;357274;-84
2023/07/24 13:04:41;;;;;;;16.00;9.18;;;;;;;;;;4335294;32;318263;-84
2023/07/24 13:07:08;;;;;;;16.45;8.65;;;;;;;;;;4314401;32;318402;-86
2023/07/24 13:09:36;;;;;;;20.58;9.20;;;;;;;;;;4325701;32;317486;-85
2023/07/24 13:12:03;;;;;;;16.62;8.00;;;;;;;;;;4324170;32;318329;-85
2023/07/24 13:14:29;;;;;;;13.25;9.02;;;;;;;;;;4339172;32;318320;-84
2023/07/24 13:16:56;;;;;;;12.85;8.43;;;;;;;;;;4328542;32;318713;-85
2023/07/24 13:19:23;;;;;;;13.60;8.38;;;;;;;;;;4347539;32;318629;-83
2023/07/24 13:21:51;;;;;;;17.50;8.40;;;;;;;;;;4354224;32;318311;-83
2023/07/24 13:24:18;;;;;;;18.70;9.70;;;;;;;;;;4344417;32;318199;-84
2023/07/24 13:26:44;;;;;;;18.62;8.20;;;;;;;;;;4354002;32;317663;-85
2023/07/24 13:29:11;;;;;;;14.45;8.50;;;;;;;;;;4342872;32;318198;-80
2023/07/24 13:31:40;;;;;;;12.23;7.60;;;;;;;;;;4353232;32;343644;-82
2023/07/24 13:34:07;;;;;;;18.05;8.95;;;;;;;;;;4344550;32;318380;-79
2023/07/24 13:36:33;;;;;;;19.10;8.02;;;;;;;;;;4353976;32;318277;-81
2023/07/24 13:39:02;;;;;;;16.00;8.18;;;;;;;;;;4344835;32;318568;-80
2023/07/24 13:41:29;;;;;;;22.48;8.48;;;;;;;;;;4352225;32;318466;-79
2023/07/24 13:43:56;;;;;;;18.50;8.48;;;;;;;;;;4343754;32;318236;-80
2023/07/24 13:46:23;;;;;;;19.20;8.93;;;;;;;;;;4352556;32;318370;-78
2023/07/24 13:48:50;;;;;;;16.73;8.50;;;;;;;;;;4353966;32;318805;-78
2023/07/24 13:51:16;;;;;;;10.68;7.72;;;;;;;;;;4342650;32;318263;-80
2023/07/24 13:53:43;;;;;;;15.25;8.38;;;;;;;;;;4352700;32;318721;-79
2023/07/24 13:56:11;;;;;;;23.70;8.18;;;;;;;;;;4343529;32;318225;-82
2023/07/24 13:58:38;;;;;;;14.20;8.88;;;;;;;;;;4353624;32;317644;-80
2023/07/24 14:01:07;;;;;;;10.02;8.55;;;;;;;;;;4344020;32;319063;-79
2023/07/24 14:03:33;;;;;;;12.90;8.55;;;;;;;;;;4353008;32;318448;-79
2023/07/24 14:06:00;;;;;;;13.80;7.55;;;;;;;;;;4342646;32;318333;-79
2023/07/24 14:08:27;;;;;;;21.92;8.88;;;;;;;;;;4353738;32;318458;-82
2023/07/24 14:10:53;;;;;;;10.93;7.87;;;;;;;;;;4353153;32;318162;-82
2023/07/24 14:13:22;;;;;;;21.87;8.68;;;;;;;;;;4339676;32;418748;-84
2023/07/24 14:15:48;;;;;;;13.38;8.93;;;;;;;;;;4351874;32;318266;-83
2023/07/24 14:18:15;;;;;;;15.27;8.73;;;;;;;;;;4343891;32;319858;-83